Buena Vista, Argentina
Current Conditions -  °F | °C
As of 2:00 PM on Wednesday 26 Nov 2014 (Local Time) from SARC Reporting Station
Broken Clouds Broken Clouds  
Wind Chill: 86°   Ceiling: 3000
Heat Index: 90°   Visibility: 6mi
Dew Point: 70°   Wind: 12mph
Humidity: 58%   Direction: 200°SSW
Pressure: 29.8"   Gusts: NA
Location:  28.85°S, 58.69°W
Report Text: SARC 261700Z 20010KT 160V240 9999BKN030TCU 30/21 Q1009
Loading
Personal Weather Stations






























Interactive Weather Map New forecast layout! Learn more

10-Day Weather Forecast

Advertisements
Track Severe Weather on mobile